createdAt,value
2018-05-18T00:01:43.440Z,11.17
2018-05-18T00:03:44.776Z,10.10
2018-05-18T00:05:45.710Z,10.67
2018-05-18T00:07:46.655Z,10.73
2018-05-18T00:09:48.073Z,9.60
2018-05-18T00:11:49.087Z,11.33
2018-05-18T00:13:50.061Z,10.60
2018-05-18T00:15:51.016Z,11.53
2018-05-18T00:17:52.560Z,10.30
2018-05-18T00:19:53.556Z,10.03
2018-05-18T00:21:54.507Z,10.73
2018-05-18T00:23:55.630Z,9.33
2018-05-18T00:25:57.438Z,10.50
2018-05-18T00:27:58.560Z,9.97
2018-05-18T00:30:00.520Z,10.50
2018-05-18T00:32:01.618Z,9.90
2018-05-18T00:34:02.621Z,10.33
2018-05-18T00:36:03.697Z,11.03
2018-05-18T00:38:05.602Z,9.90
2018-05-18T00:40:06.846Z,9.13
2018-05-18T00:42:08.222Z,10.93
2018-05-18T00:44:09.335Z,10.03
2018-05-18T00:46:10.311Z,10.77
2018-05-18T00:48:11.263Z,11.37
2018-05-18T00:50:12.582Z,9.20
2018-05-18T00:52:14.177Z,11.57
2018-05-18T00:54:15.250Z,10.77
2018-05-18T00:56:16.362Z,10.30
2018-05-18T00:58:17.421Z,11.30
2018-05-18T01:00:18.514Z,11.37
2018-05-18T01:02:19.463Z,11.70
2018-05-18T01:04:20.418Z,10.50
2018-05-18T01:06:21.358Z,9.40
2018-05-18T01:08:24.069Z,12.33
2018-05-18T01:10:27.036Z,10.73
2018-05-18T01:12:29.745Z,10.40
2018-05-18T01:14:32.458Z,8.90
2018-05-18T01:16:35.173Z,9.77
2018-05-18T01:18:37.882Z,9.47
2018-05-18T01:20:40.741Z,8.70
2018-05-18T01:22:43.785Z,10.30
2018-05-18T01:24:46.507Z,9.60
2018-05-18T01:26:49.218Z,9.93
2018-05-18T01:28:51.934Z,9.70
2018-05-18T01:30:54.650Z,10.80
2018-05-18T01:32:57.365Z,10.10
2018-05-18T01:35:00.079Z,9.10
2018-05-18T01:37:02.784Z,10.00
2018-05-18T01:39:05.654Z,9.80
2018-05-18T01:41:08.374Z,9.83
2018-05-18T01:43:11.081Z,9.83
2018-05-18T01:45:13.867Z,9.93
2018-05-18T01:47:16.585Z,10.60
2018-05-18T01:49:19.305Z,11.53
2018-05-18T01:51:22.023Z,10.07
2018-05-18T01:53:24.729Z,10.67
2018-05-18T01:55:27.462Z,12.10
2018-05-18T01:57:30.171Z,11.27
2018-05-18T01:59:32.915Z,10.80
2018-05-18T02:01:35.640Z,11.00
2018-05-18T02:03:38.358Z,10.70
2018-05-18T02:05:41.110Z,10.60
2018-05-18T02:07:43.805Z,10.53
2018-05-18T02:09:46.506Z,11.10
2018-05-18T02:11:49.325Z,9.60
2018-05-18T02:13:52.042Z,9.93
2018-05-18T02:15:54.764Z,10.10
2018-05-18T02:17:57.509Z,11.43
2018-05-18T02:20:00.233Z,10.33
2018-05-18T02:22:02.941Z,10.90
2018-05-18T02:24:05.914Z,9.70
2018-05-18T02:26:08.638Z,10.50
2018-05-18T02:28:11.360Z,10.87
2018-05-18T02:30:14.081Z,11.70
2018-05-18T02:32:16.803Z,11.03
2018-05-18T02:34:19.518Z,10.27
2018-05-18T02:36:22.254Z,10.27
2018-05-18T02:38:24.962Z,10.13
2018-05-18T02:40:27.682Z,8.93
2018-05-18T02:42:30.415Z,9.63
2018-05-18T02:44:33.121Z,9.37
2018-05-18T02:46:35.837Z,10.00
2018-05-18T02:48:38.691Z,10.10
2018-05-18T02:50:41.446Z,9.07
2018-05-18T02:52:44.203Z,8.80
2018-05-18T02:54:46.898Z,8.70
2018-05-18T02:56:49.607Z,9.43
2018-05-18T02:58:52.307Z,9.10
2018-05-18T03:00:55.021Z,10.10
2018-05-18T03:02:57.726Z,9.80
2018-05-18T03:05:00.438Z,11.73
2018-05-18T03:07:03.171Z,10.83
2018-05-18T03:09:05.882Z,11.73
2018-05-18T03:11:08.709Z,10.30
2018-05-18T03:13:11.419Z,11.90
2018-05-18T03:15:14.158Z,13.17
2018-05-18T03:17:16.869Z,10.90
2018-05-18T03:19:19.611Z,11.43
2018-05-18T03:21:22.326Z,11.80
2018-05-18T03:23:25.306Z,10.40
2018-05-18T03:25:28.017Z,12.70
2018-05-18T03:27:30.737Z,11.80
2018-05-18T03:29:33.805Z,12.47
2018-05-18T03:31:36.510Z,11.90
2018-05-18T03:33:39.217Z,11.40
2018-05-18T03:35:41.955Z,11.67
2018-05-18T03:37:44.666Z,12.00
2018-05-18T03:39:47.381Z,12.87
2018-05-18T03:41:50.113Z,12.03
2018-05-18T03:43:52.817Z,12.23
2018-05-18T03:45:55.531Z,13.10
2018-05-18T03:47:58.587Z,13.47
2018-05-18T03:50:01.297Z,12.73
2018-05-18T03:52:04.003Z,12.40
2018-05-18T03:54:06.860Z,13.13
2018-05-18T03:56:09.581Z,13.27
2018-05-18T03:58:12.307Z,13.90
2018-05-18T04:00:15.023Z,13.10
2018-05-18T04:02:23.800Z,13.17
2018-05-18T04:04:32.742Z,20.03
2018-05-18T04:06:41.709Z,16.17
2018-05-18T04:08:50.669Z,23.93
2018-05-18T04:10:53.370Z,22.80
2018-05-18T04:12:56.074Z,17.20
2018-05-18T04:14:58.797Z,19.73
2018-05-18T04:17:01.522Z,29.17
2018-05-18T04:19:04.229Z,18.07
2018-05-18T04:21:06.933Z,14.10
2018-05-18T04:23:09.642Z,15.23
2018-05-18T04:25:12.346Z,15.10
2018-05-18T04:27:15.095Z,13.40
2018-05-18T04:29:17.803Z,13.17
2018-05-18T04:31:20.509Z,12.57
2018-05-18T04:33:23.319Z,14.83
2018-05-18T04:35:26.030Z,14.20
2018-05-18T04:37:28.736Z,12.67
2018-05-18T04:39:32.463Z,14.87
2018-05-18T04:41:35.666Z,13.40
2018-05-18T04:43:38.608Z,11.83
2018-05-18T04:45:41.709Z,13.80
2018-05-18T04:47:44.418Z,13.20
2018-05-18T04:49:47.239Z,12.00
2018-05-18T04:51:49.953Z,12.20
2018-05-18T04:53:52.658Z,24.70
2018-05-18T04:55:55.378Z,25.63
2018-05-18T04:57:58.090Z,18.60
2018-05-18T05:00:01.133Z,28.00
2018-05-18T05:02:04.021Z,15.00
2018-05-18T05:04:06.732Z,12.43
2018-05-18T05:06:09.445Z,12.70
2018-05-18T05:08:12.324Z,13.43
2018-05-18T05:10:15.037Z,12.70
2018-05-18T05:12:17.753Z,14.37
2018-05-18T05:14:20.477Z,11.37
2018-05-18T05:16:23.198Z,12.30
2018-05-18T05:18:25.910Z,12.47
2018-05-18T05:20:28.641Z,10.60
2018-05-18T05:22:31.352Z,11.97
2018-05-18T05:24:34.061Z,10.60
2018-05-18T05:26:36.773Z,11.60
2018-05-18T05:28:39.502Z,12.30
2018-05-18T05:30:42.205Z,11.00
2018-05-18T05:32:44.914Z,12.37
2018-05-18T05:34:47.638Z,12.43
2018-05-18T05:36:50.337Z,10.97
2018-05-18T05:38:53.245Z,12.67
2018-05-18T05:40:55.954Z,12.80
2018-05-18T05:42:58.678Z,13.33
2018-05-18T05:45:01.692Z,12.33
2018-05-18T05:47:04.414Z,17.33
2018-05-18T05:49:07.125Z,46.73
2018-05-18T05:51:09.946Z,15.70
2018-05-18T05:53:12.674Z,11.93
2018-05-18T05:55:15.390Z,12.33
2018-05-18T05:57:18.098Z,11.43
2018-05-18T05:59:21.382Z,13.30
2018-05-18T06:01:24.289Z,11.00
2018-05-18T06:03:27.008Z,11.97
2018-05-18T06:05:29.736Z,10.83
2018-05-18T06:07:32.422Z,15.50
2018-05-18T06:09:35.182Z,19.13
2018-05-18T06:11:37.885Z,14.83
2018-05-18T06:13:40.600Z,11.67
2018-05-18T06:15:43.329Z,11.23
2018-05-18T06:17:46.030Z,11.63
2018-05-18T06:19:48.754Z,10.67
2018-05-18T06:21:51.466Z,10.83
2018-05-18T06:23:54.169Z,12.30
2018-05-18T06:25:56.886Z,12.90
2018-05-18T06:27:59.624Z,12.37
2018-05-18T06:30:02.341Z,19.80
2018-05-18T06:32:05.497Z,12.83
2018-05-18T06:34:08.263Z,9.10
2018-05-18T06:36:11.013Z,10.80
2018-05-18T06:38:13.752Z,11.37
2018-05-18T06:40:16.462Z,11.70
2018-05-18T06:42:19.669Z,13.30
2018-05-18T06:44:22.374Z,22.83
2018-05-18T06:46:25.083Z,12.77
2018-05-18T06:48:28.204Z,9.90
2018-05-18T06:50:30.921Z,9.70
2018-05-18T06:52:33.890Z,9.57
2018-05-18T06:54:36.621Z,10.43
2018-05-18T06:56:39.322Z,10.43
2018-05-18T06:58:42.053Z,11.07
2018-05-18T07:00:44.745Z,10.07
2018-05-18T07:02:47.453Z,8.97
2018-05-18T07:04:50.174Z,10.40
2018-05-18T07:06:52.872Z,9.73
2018-05-18T07:08:55.594Z,9.53
2018-05-18T07:10:58.316Z,9.90
2018-05-18T07:13:01.029Z,9.60
2018-05-18T07:15:03.762Z,10.20
2018-05-18T07:17:06.475Z,9.73
2018-05-18T07:19:09.188Z,10.60
2018-05-18T07:21:12.244Z,10.10
2018-05-18T07:23:14.949Z,10.37
2018-05-18T07:25:17.691Z,11.17
2018-05-18T07:27:20.413Z,10.73
2018-05-18T07:29:23.153Z,10.47
2018-05-18T07:31:25.853Z,10.17
2018-05-18T07:33:28.550Z,11.47
2018-05-18T07:35:31.265Z,10.87
2018-05-18T07:37:34.014Z,10.13
2018-05-18T07:39:36.729Z,11.37
2018-05-18T07:41:39.433Z,10.20
2018-05-18T07:43:42.412Z,10.33
2018-05-18T07:45:45.125Z,9.80
2018-05-18T07:47:47.837Z,10.10
2018-05-18T07:49:50.565Z,10.00
2018-05-18T07:51:53.297Z,9.03
2018-05-18T07:53:56.002Z,10.50
2018-05-18T07:55:59.058Z,10.30
2018-05-18T07:58:01.771Z,8.93
2018-05-18T08:00:04.783Z,12.90
2018-05-18T08:02:07.502Z,10.80
2018-05-18T08:04:10.213Z,8.87
2018-05-18T08:06:12.917Z,10.33
2018-05-18T08:08:15.968Z,9.17
2018-05-18T08:10:18.843Z,8.70
2018-05-18T08:12:21.561Z,9.73
2018-05-18T08:14:24.392Z,10.93
2018-05-18T08:16:27.886Z,8.90
2018-05-18T08:18:30.594Z,9.67
2018-05-18T08:20:33.309Z,10.47
2018-05-18T08:22:36.026Z,9.60
2018-05-18T08:24:38.737Z,10.47
2018-05-18T08:26:41.445Z,10.00
2018-05-18T08:28:50.402Z,10.13
2018-05-18T08:30:59.393Z,10.23
2018-05-18T08:33:02.110Z,10.27
2018-05-18T08:35:04.829Z,11.30
2018-05-18T08:37:07.540Z,10.70
2018-05-18T08:39:10.250Z,10.80
2018-05-18T08:41:12.949Z,8.83
2018-05-18T08:43:15.826Z,10.37
2018-05-18T08:45:18.532Z,12.03
2018-05-18T08:47:21.281Z,9.60
2018-05-18T08:49:23.973Z,11.33
2018-05-18T08:51:27.029Z,11.13
2018-05-18T08:53:29.845Z,9.50
2018-05-18T08:55:32.549Z,9.43
2018-05-18T08:57:35.263Z,10.70
2018-05-18T08:59:37.985Z,9.03
2018-05-18T09:01:40.911Z,10.73
2018-05-18T09:03:43.613Z,9.80
2018-05-18T09:05:46.771Z,10.30
2018-05-18T09:07:49.670Z,9.33
2018-05-18T09:09:52.375Z,9.70
2018-05-18T09:11:55.094Z,14.13
2018-05-18T09:13:57.813Z,10.93
2018-05-18T09:16:00.584Z,9.90
2018-05-18T09:18:03.336Z,10.70
2018-05-18T09:20:06.041Z,9.43
2018-05-18T09:22:08.749Z,8.57
2018-05-18T09:24:11.482Z,9.17
2018-05-18T09:26:14.498Z,9.10
2018-05-18T09:28:17.209Z,8.10
2018-05-18T09:30:19.909Z,10.43
2018-05-18T09:32:22.638Z,9.03
2018-05-18T09:34:25.342Z,9.10
2018-05-18T09:36:28.046Z,9.83
2018-05-18T09:38:31.527Z,8.27
2018-05-18T09:40:34.251Z,9.87
2018-05-18T09:42:37.234Z,11.60
2018-05-18T09:44:39.941Z,9.67
2018-05-18T09:46:43.488Z,9.50
2018-05-18T09:48:46.218Z,8.37
2018-05-18T09:50:48.922Z,8.97
2018-05-18T09:52:52.177Z,8.87
2018-05-18T09:54:55.063Z,9.60
2018-05-18T09:56:57.620Z,10.27
2018-05-18T09:59:00.338Z,10.87
2018-05-18T10:01:03.065Z,8.77
2018-05-18T10:03:05.786Z,8.87
2018-05-18T10:05:08.513Z,9.73
2018-05-18T10:07:11.921Z,8.77
2018-05-18T10:09:14.617Z,10.20
2018-05-18T10:11:17.328Z,10.00
2018-05-18T10:13:20.309Z,9.67
2018-05-18T10:15:23.042Z,8.30
2018-05-18T10:17:25.749Z,8.87
2018-05-18T10:19:28.479Z,9.07
2018-05-18T10:21:31.222Z,9.23
2018-05-18T10:23:33.939Z,9.97
2018-05-18T10:25:36.645Z,19.43
2018-05-18T10:27:39.397Z,34.90
2018-05-18T10:29:42.110Z,10.60
2018-05-18T10:31:44.835Z,9.37
2018-05-18T10:33:47.564Z,9.20
2018-05-18T10:35:50.275Z,9.27
2018-05-18T10:37:52.985Z,9.47
2018-05-18T10:39:55.736Z,9.13
2018-05-18T10:41:58.441Z,10.50
2018-05-18T10:44:01.157Z,9.20
2018-05-18T10:46:03.998Z,9.60
2018-05-18T10:48:06.698Z,8.07
2018-05-18T10:50:10.036Z,8.53
2018-05-18T10:52:12.785Z,8.73
2018-05-18T10:54:15.502Z,8.67
2018-05-18T10:56:18.208Z,8.83
2018-05-18T10:58:20.917Z,7.90
2018-05-18T11:00:24.108Z,8.23
2018-05-18T11:02:26.829Z,8.27
2018-05-18T11:04:29.530Z,8.93
2018-05-18T11:06:32.257Z,9.83
2018-05-18T11:08:34.961Z,11.50
2018-05-18T11:10:38.140Z,9.90
2018-05-18T11:12:40.947Z,10.03
2018-05-18T11:14:43.662Z,9.17
2018-05-18T11:16:46.365Z,8.83
2018-05-18T11:18:49.102Z,9.70
2018-05-18T11:20:51.819Z,9.17
2018-05-18T11:22:55.170Z,9.20
2018-05-18T11:24:57.906Z,12.23
2018-05-18T11:27:00.614Z,10.47
2018-05-18T11:29:03.324Z,9.40
2018-05-18T11:31:06.077Z,10.87
2018-05-18T11:33:08.876Z,10.80
2018-05-18T11:35:11.538Z,10.00
2018-05-18T11:37:14.485Z,9.97
2018-05-18T11:39:17.205Z,9.43
2018-05-18T11:41:19.909Z,9.43
2018-05-18T11:43:22.643Z,9.73
2018-05-18T11:45:25.349Z,10.27
2018-05-18T11:47:28.058Z,11.27
2018-05-18T11:49:30.797Z,10.07
2018-05-18T11:51:33.502Z,10.60
2018-05-18T11:53:36.243Z,9.73
2018-05-18T11:55:39.774Z,10.23
2018-05-18T11:57:42.515Z,9.20
2018-05-18T11:59:45.227Z,10.47
2018-05-18T12:01:47.961Z,9.87
2018-05-18T12:03:50.698Z,9.83
2018-05-18T12:05:53.401Z,9.00
2018-05-18T12:07:56.482Z,9.23
2018-05-18T12:09:59.193Z,8.50
2018-05-18T12:12:01.906Z,8.27
2018-05-18T12:14:04.696Z,9.10
2018-05-18T12:16:07.379Z,8.33
2018-05-18T12:18:10.101Z,9.10
2018-05-18T12:20:12.810Z,9.20
2018-05-18T12:22:15.566Z,8.77
2018-05-18T12:24:18.269Z,10.60
2018-05-18T12:26:20.973Z,9.97
2018-05-18T12:28:23.680Z,9.87
2018-05-18T12:30:26.423Z,9.73
2018-05-18T12:32:29.138Z,9.40
2018-05-18T12:34:31.864Z,9.67
2018-05-18T12:36:34.585Z,9.10
2018-05-18T12:38:37.289Z,9.20
2018-05-18T12:40:40.001Z,11.00
2018-05-18T12:42:42.707Z,9.80
2018-05-18T12:44:45.776Z,10.27
2018-05-18T12:46:48.418Z,9.07
2018-05-18T12:48:51.137Z,9.70
2018-05-18T12:50:53.850Z,9.63
2018-05-18T12:52:56.550Z,9.17
2018-05-18T12:54:59.260Z,8.90
2018-05-18T12:57:01.989Z,10.33
2018-05-18T12:59:04.710Z,8.60
2018-05-18T13:01:07.413Z,9.20
2018-05-18T13:03:10.129Z,8.30
2018-05-18T13:05:12.877Z,9.30
2018-05-18T13:07:15.586Z,9.90
2018-05-18T13:09:18.296Z,10.60
2018-05-18T13:11:21.025Z,9.50
2018-05-18T13:13:23.731Z,9.97
2018-05-18T13:15:26.506Z,10.57
2018-05-18T13:17:29.242Z,8.63
2018-05-18T13:19:31.958Z,9.93
2018-05-18T13:21:34.665Z,9.80
2018-05-18T13:23:37.482Z,11.00
2018-05-18T13:25:40.192Z,10.30
2018-05-18T13:27:42.954Z,9.87
2018-05-18T13:29:45.654Z,9.40
2018-05-18T13:31:48.368Z,9.33
2018-05-18T13:33:51.089Z,9.20
2018-05-18T13:35:53.802Z,9.60
2018-05-18T13:37:56.519Z,9.70
2018-05-18T13:39:59.276Z,9.20
2018-05-18T13:42:02.097Z,9.40
2018-05-18T13:44:04.806Z,9.40
2018-05-18T13:46:07.522Z,8.90
2018-05-18T13:48:10.232Z,9.03
2018-05-18T13:50:13.071Z,9.67
2018-05-18T13:52:15.781Z,9.43
2018-05-18T13:54:18.496Z,8.37
2018-05-18T13:56:21.236Z,7.63
2018-05-18T13:58:23.937Z,8.13
2018-05-18T14:00:26.661Z,9.10
2018-05-18T14:02:29.401Z,7.20
2018-05-18T14:04:32.101Z,10.97
2018-05-18T14:06:34.845Z,13.00
2018-05-18T14:08:37.565Z,14.57
2018-05-18T14:10:40.268Z,10.87
2018-05-18T14:12:42.994Z,9.90
2018-05-18T14:14:46.155Z,8.30
2018-05-18T14:16:48.871Z,9.10
2018-05-18T14:18:51.973Z,8.30
2018-05-18T14:20:54.684Z,8.73
2018-05-18T14:22:57.401Z,8.03
2018-05-18T14:25:00.135Z,8.60
2018-05-18T14:27:03.268Z,7.83
2018-05-18T14:29:05.991Z,8.30
2018-05-18T14:31:08.997Z,10.23
2018-05-18T14:33:11.709Z,8.43
2018-05-18T14:35:14.413Z,8.43
2018-05-18T14:37:17.351Z,8.80
2018-05-18T14:39:20.049Z,9.50
2018-05-18T14:41:22.770Z,10.23
2018-05-18T14:43:25.505Z,9.10
2018-05-18T14:45:28.226Z,8.80
2018-05-18T14:47:30.965Z,8.67
2018-05-18T14:49:33.686Z,8.93
2018-05-18T14:51:36.426Z,8.63
2018-05-18T14:53:39.136Z,8.33
2018-05-18T14:55:41.845Z,8.67
2018-05-18T14:57:45.033Z,8.70
2018-05-18T14:59:47.737Z,8.60
2018-05-18T15:01:50.748Z,8.10
2018-05-18T15:03:53.472Z,9.00
2018-05-18T15:05:56.166Z,7.57
2018-05-18T15:07:58.879Z,8.83
2018-05-18T15:10:01.595Z,8.33
2018-05-18T15:12:04.311Z,23.10
2018-05-18T15:14:07.034Z,26.90
2018-05-18T15:16:09.747Z,8.00
2018-05-18T15:18:12.473Z,8.40
2018-05-18T15:22:24.706Z,8.83
2018-05-18T15:24:27.414Z,8.13
2018-05-18T15:26:30.149Z,8.60
2018-05-18T15:28:32.861Z,8.60
2018-05-18T15:30:35.584Z,8.50
2018-05-18T15:32:38.309Z,8.07
2018-05-18T15:34:41.077Z,8.60
2018-05-18T15:36:43.810Z,8.63
2018-05-18T15:38:47.101Z,10.03
2018-05-18T15:40:49.882Z,8.30
2018-05-18T15:42:52.651Z,7.60
2018-05-18T15:44:55.418Z,9.20
2018-05-18T15:46:58.139Z,9.70
2018-05-18T15:49:00.953Z,8.03
2018-05-18T15:51:03.973Z,7.83
2018-05-18T15:53:06.696Z,8.10
2018-05-18T15:55:09.419Z,7.83
2018-05-18T15:57:12.248Z,8.03
2018-05-18T15:59:14.995Z,8.47
2018-05-18T16:01:17.746Z,8.07
2018-05-18T16:03:20.472Z,7.00
2018-05-18T16:05:23.479Z,7.97
2018-05-18T16:07:26.219Z,8.27
2018-05-18T16:09:28.992Z,11.67
2018-05-18T16:11:31.989Z,17.87
2018-05-18T16:13:34.737Z,9.13
2018-05-18T16:15:37.492Z,8.20
2018-05-18T16:17:40.237Z,8.10
2018-05-18T16:19:42.983Z,8.30
2018-05-18T16:21:45.717Z,8.27
2018-05-18T16:23:48.496Z,8.47
2018-05-18T16:25:51.229Z,8.63
2018-05-18T16:27:53.974Z,9.77
2018-05-18T16:29:56.746Z,8.53
2018-05-18T16:31:59.466Z,9.33
2018-05-18T16:34:02.250Z,9.13
2018-05-18T16:36:05.013Z,9.07
2018-05-18T16:38:07.758Z,9.50
2018-05-18T16:40:10.843Z,8.67
2018-05-18T16:42:13.557Z,9.27
2018-05-18T16:44:16.309Z,9.30
2018-05-18T16:46:19.056Z,8.43
2018-05-18T16:48:21.773Z,10.17
2018-05-18T16:50:24.506Z,7.60
2018-05-18T16:52:27.261Z,7.90
2018-05-18T16:54:30.038Z,9.37
2018-05-18T16:56:32.792Z,9.10
2018-05-18T16:58:35.538Z,10.07
2018-05-18T17:00:38.293Z,8.40
2018-05-18T17:02:41.013Z,9.17
2018-05-18T17:04:43.746Z,10.47
2018-05-18T17:06:46.501Z,24.40
2018-05-18T17:08:49.225Z,17.83
2018-05-18T17:10:51.957Z,18.83
2018-05-18T17:12:54.956Z,13.00
2018-05-18T17:14:57.706Z,10.63
2018-05-18T17:17:00.452Z,10.00
2018-05-18T17:19:03.267Z,9.83
2018-05-18T17:21:06.037Z,8.77
2018-05-18T17:23:08.826Z,9.40
2018-05-18T17:25:11.678Z,8.90
2018-05-18T17:27:14.499Z,9.50
2018-05-18T17:29:17.263Z,8.33
2018-05-18T17:31:20.100Z,13.60
2018-05-18T17:33:22.855Z,16.17
2018-05-18T17:35:25.612Z,20.00
2018-05-18T17:37:28.370Z,12.83
2018-05-18T17:39:31.137Z,8.60
2018-05-18T17:41:33.886Z,9.63
2018-05-18T17:43:36.648Z,9.63
2018-05-18T17:45:39.389Z,9.13
2018-05-18T17:47:42.421Z,9.30
2018-05-18T17:49:45.172Z,9.40
2018-05-18T17:51:47.952Z,9.03
2018-05-18T17:53:50.742Z,10.17
2018-05-18T17:55:53.490Z,9.10
2018-05-18T17:57:56.237Z,15.17
2018-05-18T17:59:59.033Z,24.33
2018-05-18T18:02:01.808Z,21.90
2018-05-18T18:04:04.558Z,10.77
2018-05-18T18:06:07.314Z,9.80
2018-05-18T18:08:10.054Z,8.80
2018-05-18T18:10:12.795Z,9.87
2018-05-18T18:12:15.577Z,8.63
2018-05-18T18:14:18.330Z,10.60
2018-05-18T18:16:31.697Z,10.33
2018-05-18T18:18:36.986Z,9.40
2018-05-18T18:20:39.768Z,8.27
2018-05-18T18:22:42.530Z,10.20
2018-05-18T18:24:45.274Z,8.67
2018-05-18T18:26:48.042Z,9.20
2018-05-18T18:28:50.837Z,8.47
2018-05-18T18:30:53.574Z,9.20
2018-05-18T18:32:57.052Z,8.50
2018-05-18T18:35:00.062Z,8.90
2018-05-18T18:37:02.838Z,42.87
2018-05-18T18:39:05.729Z,17.10
2018-05-18T18:41:08.475Z,21.03
2018-05-18T18:43:11.209Z,10.67
2018-05-18T18:45:13.974Z,9.80
2018-05-18T18:47:17.462Z,12.07
2018-05-18T18:49:20.227Z,7.63
2018-05-18T18:51:23.058Z,9.70
2018-05-18T18:53:25.808Z,10.67
2018-05-18T18:55:28.535Z,10.83
2018-05-18T18:57:31.309Z,9.83
2018-05-18T18:59:34.082Z,10.47
2018-05-18T19:01:36.850Z,8.80
2018-05-18T19:03:39.623Z,8.10
2018-05-18T19:05:42.388Z,7.53
2018-05-18T19:07:45.146Z,8.90
2018-05-18T19:09:47.918Z,7.70
2018-05-18T19:11:50.673Z,8.87
2018-05-18T19:13:53.394Z,7.93
2018-05-18T19:15:56.120Z,7.60
2018-05-18T19:17:58.877Z,7.80
2018-05-18T19:20:01.648Z,9.10
2018-05-18T19:22:04.419Z,8.77
2018-05-18T19:24:07.143Z,22.30
2018-05-18T19:26:09.910Z,15.43
2018-05-18T19:28:12.678Z,18.50
2018-05-18T19:30:15.445Z,17.60
2018-05-18T19:32:18.173Z,11.93
2018-05-18T19:34:20.988Z,13.13
2018-05-18T19:36:23.834Z,13.23
2018-05-18T19:38:26.543Z,11.70
2018-05-18T19:40:29.322Z,10.67
2018-05-18T19:42:32.115Z,12.27
2018-05-18T19:44:34.872Z,9.50
2018-05-18T19:46:37.656Z,11.47
2018-05-18T19:48:40.401Z,10.93
2018-05-18T19:50:43.129Z,15.77
2018-05-18T19:52:46.018Z,20.20
2018-05-18T19:54:48.796Z,22.00
2018-05-18T19:56:51.521Z,18.60
2018-05-18T19:58:54.298Z,15.90
2018-05-18T20:00:57.066Z,14.53
2018-05-18T20:02:59.802Z,11.33
2018-05-18T20:05:02.558Z,13.07
2018-05-18T20:07:05.313Z,13.70
2018-05-18T20:09:08.049Z,11.87
2018-05-18T20:11:10.827Z,10.40
2018-05-18T20:13:13.548Z,11.13
2018-05-18T20:15:16.297Z,12.27
2018-05-18T20:17:19.182Z,11.63
2018-05-18T20:19:22.322Z,10.10
2018-05-18T20:21:25.102Z,11.90
2018-05-18T20:23:27.854Z,12.03
2018-05-18T20:25:30.593Z,12.83
2018-05-18T20:27:33.332Z,28.43
2018-05-18T20:29:36.110Z,22.90
2018-05-18T20:31:38.874Z,15.60
2018-05-18T20:33:41.627Z,15.23
2018-05-18T20:35:44.377Z,12.27
2018-05-18T20:37:47.149Z,11.23
2018-05-18T20:39:49.902Z,12.57
2018-05-18T20:41:52.667Z,11.10
2018-05-18T20:43:55.433Z,11.13
2018-05-18T20:45:58.185Z,11.57
2018-05-18T20:48:00.962Z,10.70
2018-05-18T20:50:03.712Z,11.70
2018-05-18T20:52:06.529Z,9.77
2018-05-18T20:54:09.331Z,10.30
2018-05-18T20:56:12.094Z,10.53
2018-05-18T20:58:14.825Z,15.07
2018-05-18T21:00:17.578Z,12.30
2018-05-18T21:02:20.340Z,10.97
2018-05-18T21:04:23.080Z,10.23
2018-05-18T21:06:25.853Z,9.70
2018-05-18T21:08:28.620Z,11.53
2018-05-18T21:10:31.400Z,8.93
2018-05-18T21:12:34.150Z,10.20
2018-05-18T21:14:36.944Z,9.13
2018-05-18T21:16:39.734Z,9.20
2018-05-18T21:18:42.486Z,10.90
2018-05-18T21:20:45.234Z,10.57
2018-05-18T21:22:47.988Z,10.80
2018-05-18T21:24:50.720Z,10.50
2018-05-18T21:26:53.481Z,10.10
2018-05-18T21:28:56.226Z,11.50
2018-05-18T21:30:59.027Z,10.17
2018-05-18T21:33:01.794Z,10.97
2018-05-18T21:35:04.722Z,9.33
2018-05-18T21:37:07.450Z,8.33
2018-05-18T21:39:10.199Z,8.47
2018-05-18T21:41:12.951Z,10.00
2018-05-18T21:43:15.714Z,8.50
2018-05-18T21:45:18.465Z,9.67
2018-05-18T21:47:21.385Z,9.73
2018-05-18T21:49:24.125Z,9.87
2018-05-18T21:51:26.883Z,9.60
2018-05-18T21:53:29.663Z,9.77
2018-05-18T21:55:32.447Z,10.20
2018-05-18T21:57:35.204Z,10.30
2018-05-18T21:59:37.954Z,14.00
2018-05-18T22:01:40.693Z,41.80
2018-05-18T22:03:43.426Z,92.87
2018-05-18T22:05:46.177Z,53.33
2018-05-18T22:07:48.889Z,23.90
2018-05-18T22:09:51.626Z,16.40
2018-05-18T22:11:54.390Z,16.70
2018-05-18T22:13:57.113Z,11.63
2018-05-18T22:15:59.874Z,10.53
2018-05-18T22:18:02.717Z,10.47
2018-05-18T22:20:05.473Z,10.80
2018-05-18T22:22:08.231Z,14.47
2018-05-18T22:24:11.005Z,12.33
2018-05-18T22:26:13.759Z,14.27
2018-05-18T22:28:16.541Z,11.30
2018-05-18T22:30:19.258Z,10.33
2018-05-18T22:32:21.985Z,10.13
2018-05-18T22:34:24.721Z,9.43
2018-05-18T22:36:27.466Z,8.87
2018-05-18T22:38:30.221Z,37.10
2018-05-18T22:40:33.134Z,45.03
2018-05-18T22:42:35.861Z,27.57
2018-05-18T22:44:38.609Z,12.20
2018-05-18T22:46:42.125Z,10.70
2018-05-18T22:48:44.877Z,9.77
2018-05-18T22:50:47.624Z,10.30
2018-05-18T22:52:50.354Z,9.80
2018-05-18T22:54:53.106Z,9.20
2018-05-18T22:56:55.840Z,10.00
2018-05-18T22:58:58.581Z,9.00
2018-05-18T23:01:01.517Z,11.07
2018-05-18T23:03:04.272Z,10.90
2018-05-18T23:05:07.006Z,10.03
2018-05-18T23:07:09.758Z,11.60
2018-05-18T23:09:12.496Z,9.47
2018-05-18T23:11:15.249Z,10.20
2018-05-18T23:13:18.017Z,10.10
2018-05-18T23:15:20.737Z,8.87
2018-05-18T23:17:23.470Z,8.93
2018-05-18T23:19:26.229Z,9.47
2018-05-18T23:21:28.969Z,8.90
2018-05-18T23:23:31.721Z,10.00
2018-05-18T23:25:34.481Z,9.40
2018-05-18T23:27:37.213Z,9.60
2018-05-18T23:29:39.961Z,9.63
2018-05-18T23:31:42.713Z,9.17
2018-05-18T23:33:45.453Z,9.40
2018-05-18T23:35:48.187Z,9.93
2018-05-18T23:37:50.929Z,10.60
2018-05-18T23:39:53.674Z,9.60
2018-05-18T23:41:56.412Z,9.53
2018-05-18T23:43:59.194Z,9.20
2018-05-18T23:46:01.939Z,9.90
2018-05-18T23:48:04.687Z,9.43
2018-05-18T23:50:07.443Z,9.30
2018-05-18T23:52:10.197Z,8.50
2018-05-18T23:54:12.938Z,9.43
2018-05-18T23:56:15.665Z,9.70
2018-05-18T23:58:18.393Z,9.73
